Terminal Aerodrome Forecast
Issued by NWS

Home | Current Version | Previous Version | Text Only | Print | Product List | Glossary On
Versions: 1 2 3 4 5 6 7 8 9 10 11 12 13 14
000
FTAK31 PAJN 221100
TAFAWG
TAF
PAWG 221127Z 2212/2312 VRB03KT P6SM FEW002 FEW200
     FM221700 30007KT P6SM FEW200
     FM230600 VRB03KT P6SM SCT150 BKN200
      AMD LTD TO CLD VIS AND WIND 2212/2215=

USA.gov is the U.S. government's official web portal to all federal, state and local government web resources and services.